Time;durP1;ratioP1;P1;durP2;ratioP2;P2;SDS_P1;SDS_P2;PMS_P1;PMS_P2;Temp;Humidity;BMP_temperature;BMP_pressure;BME280_temperature;BME280_humidity;BME280_pressure;Samples;Min_cycle;Max_cycle;Signal;HPM_P1;HPM_P2
2022/01/14 00:01:45;;;;;;;11.55;9.60;;;;;;;15.44;39.32;94901.41;4970178;28;20038;-84
2022/01/14 00:04:10;;;;;;;14.07;10.20;;;;;;;15.40;39.37;94898.06;4953199;28;20054;-85
2022/01/14 00:06:37;;;;;;;14.10;10.68;;;;;;;15.42;39.54;94893.69;4937399;28;20133;-84
2022/01/14 00:09:08;;;;;;;13.38;9.95;;;;;;;15.42;39.65;94892.91;4936863;28;20039;-85
2022/01/14 00:11:34;;;;;;;;;;;;;;;15.44;39.45;94890.50;4938569;28;20553;-85
2022/01/14 00:16:32;;;;;;;13.40;9.65;;;;;;;15.37;39.59;94886.09;4939112;28;20121;-84
2022/01/14 00:18:58;;;;;;;14.55;9.18;;;;;;;15.44;39.51;94882.31;4937428;28;20097;-84
2022/01/14 00:21:25;;;;;;;13.30;9.07;;;;;;;15.41;39.46;94875.06;4953075;28;20573;-85
2022/01/14 00:23:53;;;;;;;12.32;9.20;;;;;;;15.39;39.32;94877.47;4921864;28;20031;-84
2022/01/14 00:31:54;;;;;;;13.63;9.70;;;;;;;15.40;39.68;94873.53;4955516;28;20449;-85
2022/01/14 00:34:19;;;;;;;11.98;8.93;;;;;;;15.35;39.42;94874.94;4934256;28;20047;-84
2022/01/14 00:36:45;;;;;;;11.38;8.57;;;;;;;15.41;39.32;94878.53;4933892;29;20035;-84
2022/01/14 00:39:11;;;;;;;11.93;9.07;;;;;;;15.36;39.50;94870.25;4933303;28;20038;-84
2022/01/14 00:41:37;;;;;;;10.82;8.50;;;;;;;15.36;39.54;94872.97;4933999;29;20071;-84
2022/01/14 00:44:06;;;;;;;13.00;8.43;;;;;;;15.41;39.36;94866.88;4917927;28;20110;-84
2022/01/14 00:46:32;;;;;;;10.18;8.15;;;;;;;15.41;39.45;94862.19;4934409;29;20102;-84
2022/01/14 00:48:57;;;;;;;11.63;8.82;;;;;;;15.40;39.47;94863.41;4933399;28;20032;-84
2022/01/14 00:51:23;;;;;;;9.95;7.68;;;;;;;15.41;39.46;94864.16;4949156;28;20031;-85
2022/01/14 00:53:48;;;;;;;12.32;8.80;;;;;;;15.46;39.24;94862.78;4949616;28;20031;-84
2022/01/14 00:56:29;;;;;;;12.45;8.65;;;;;;;15.41;39.51;94861.44;4949252;28;20233;-85
2022/01/14 01:01:39;;;;;;;13.45;9.40;;;;;;;15.38;39.42;94852.19;4918875;28;20087;-84
2022/01/14 01:04:04;;;;;;;11.00;7.97;;;;;;;15.43;39.44;94853.56;4950046;28;20051;-84
2022/01/14 01:06:30;;;;;;;11.13;8.52;;;;;;;15.40;39.50;94846.28;4949114;28;20040;-85
2022/01/14 01:08:56;;;;;;;10.85;8.93;;;;;;;15.42;39.54;94836.44;4933066;29;20035;-85
2022/01/14 01:11:27;;;;;;;13.93;10.10;;;;;;;15.38;39.51;94837.81;4932655;28;20118;-85
2022/01/14 01:14:03;;;;;;;10.07;7.68;;;;;;;15.40;39.66;94844.31;4933750;28;20028;-84
2022/01/14 01:16:28;;;;;;;10.07;7.60;;;;;;;15.37;39.73;94852.69;4934550;28;20039;-84
2022/01/14 01:18:53;;;;;;;10.57;7.65;;;;;;;15.41;39.40;94851.28;4949057;28;20030;-84
2022/01/14 01:21:19;;;;;;;12.20;8.30;;;;;;;15.39;39.61;94839.31;4932800;28;20039;-84
2022/01/14 01:23:44;;;;;;;10.85;7.03;;;;;;;15.37;39.45;94856.13;4949497;28;20454;-84
2022/01/14 01:26:15;;;;;;;12.40;8.20;;;;;;;15.36;39.32;94843.75;4949048;28;20035;-85
2022/01/14 01:28:57;;;;;;;9.02;7.18;;;;;;;15.46;39.31;94833.56;4949593;28;20042;-84
2022/01/14 01:31:35;;;;;;;15.63;10.93;;;;;;;15.35;39.71;94834.06;4934774;28;20126;-84
2022/01/14 01:34:06;;;;;;;20.25;11.82;;;;;;;15.47;39.29;94828.88;4934507;28;20118;-84
2022/01/14 01:36:32;;;;;;;11.38;8.00;;;;;;;15.43;39.40;94842.66;4949116;28;20405;-84
2022/01/14 01:38:57;;;;;;;10.57;7.72;;;;;;;15.39;39.54;94833.88;4932777;29;20028;-84
2022/01/14 01:41:22;;;;;;;10.88;8.25;;;;;;;15.41;39.34;94834.94;4950257;28;20487;-84
2022/01/14 01:43:53;;;;;;;9.65;6.72;;;;;;;15.43;39.51;94829.78;4933394;29;20435;-84
2022/01/14 01:46:20;;;;;;;10.98;7.50;;;;;;;15.44;39.57;94814.19;4917468;28;20036;-84
2022/01/14 01:48:46;;;;;;;7.63;6.13;;;;;;;15.42;39.51;94811.16;4933187;28;20043;-84
2022/01/14 01:51:12;;;;;;;10.02;7.68;;;;;;;15.39;39.18;94826.47;4948565;28;20502;-84
2022/01/14 01:53:37;;;;;;;10.57;6.75;;;;;;;15.40;39.34;94819.81;4933005;29;20035;-84
2022/01/14 01:56:02;;;;;;;10.52;7.15;;;;;;;15.45;39.31;94810.25;4917074;28;20443;-84
2022/01/14 01:58:28;;;;;;;12.90;8.82;;;;;;;15.41;39.39;94812.38;4917065;28;20042;-84
2022/01/14 02:00:53;;;;;;;10.25;7.57;;;;;;;15.38;39.55;94805.13;4948718;28;20035;-85
2022/01/14 02:03:18;;;;;;;11.55;7.90;;;;;;;15.33;39.41;94797.59;4948266;28;20043;-84
2022/01/14 02:05:44;;;;;;;20.95;13.90;;;;;;;15.49;39.79;94808.13;4949156;28;20083;-84
2022/01/14 02:08:10;;;;;;;9.38;7.05;;;;;;;15.41;39.43;94801.47;4947747;28;20070;-84
2022/01/14 02:10:37;;;;;;;9.38;7.18;;;;;;;15.40;39.33;94792.56;4913765;29;20482;-84
2022/01/14 02:13:03;;;;;;;8.63;6.20;;;;;;;15.37;39.53;94787.28;4915854;28;20142;-85
2022/01/14 02:15:51;;;;;;;10.00;6.93;;;;;;;15.37;39.69;94785.28;4934139;29;20043;-84
2022/01/14 02:23:40;;;;;;;8.15;6.22;;;;;;;15.43;39.33;94772.56;4951290;28;20031;-84
2022/01/14 02:26:05;;;;;;;8.93;6.50;;;;;;;15.40;39.52;94772.72;4936720;28;20126;-84
2022/01/14 02:28:31;;;;;;;10.15;6.63;;;;;;;15.38;39.28;94778.63;4920367;29;20047;-85
2022/01/14 02:30:56;;;;;;;11.57;7.75;;;;;;;15.36;39.48;94769.44;4935308;29;20345;-84
2022/01/14 02:33:22;;;;;;;8.25;6.38;;;;;;;15.41;39.23;94764.09;4919768;28;20058;-84
2022/01/14 02:35:48;;;;;;;8.35;6.63;;;;;;;15.36;39.43;94759.28;4936254;28;20053;-84
2022/01/14 02:38:15;;;;;;;7.82;5.93;;;;;;;15.38;39.40;94751.38;4935920;28;20504;-85
2022/01/14 02:40:41;;;;;;;10.25;7.07;;;;;;;15.34;39.40;94761.72;4952166;28;20042;-85
2022/01/14 02:43:12;;;;;;;8.55;6.63;;;;;;;15.41;39.46;94766.06;4935767;28;20118;-84
2022/01/14 02:45:37;;;;;;;;;;;;;;;15.41;39.30;94763.34;4921734;29;20035;-84
2022/01/14 02:48:03;;;;;;;10.10;6.32;;;;;;;15.37;39.34;94763.50;4935596;28;19930;-84
2022/01/14 02:50:37;;;;;;;8.32;6.40;;;;;;;15.40;39.42;94764.53;4935653;28;20035;-84
2022/01/14 02:53:12;;;;;;;9.13;7.60;;;;;;;15.43;39.40;94767.13;4921817;28;20039;-85
2022/01/14 02:55:43;;;;;;;9.07;6.30;;;;;;;15.37;39.46;94754.59;4937136;28;20506;-84
2022/01/14 02:58:08;;;;;;;8.23;5.55;;;;;;;15.36;39.09;94751.09;4935982;28;20039;-85
2022/01/14 03:00:33;;;;;;;9.27;6.47;;;;;;;15.38;39.33;94762.28;4935324;28;20039;-85
2022/01/14 03:02:59;;;;;;;6.75;5.15;;;;;;;15.42;39.45;94756.69;4935870;28;20523;-84
2022/01/14 03:05:26;;;;;;;8.07;5.88;;;;;;;15.35;39.43;94754.28;4919410;28;20046;-84
2022/01/14 03:07:51;;;;;;;8.00;5.53;;;;;;;15.36;39.56;94750.34;4935348;29;20035;-84
2022/01/14 03:10:17;;;;;;;8.30;5.78;;;;;;;15.37;39.32;94743.69;4935129;28;20074;-84
2022/01/14 03:12:42;;;;;;;8.32;6.53;;;;;;;15.41;39.26;94744.25;4935294;28;20087;-84
2022/01/14 03:15:08;;;;;;;9.55;6.20;;;;;;;15.40;39.37;94740.03;4935203;28;20039;-85
2022/01/14 03:17:34;;;;;;;10.82;5.88;;;;;;;15.37;39.52;94733.53;4935881;28;20039;-84
2022/01/14 03:20:01;;;;;;;11.52;6.82;;;;;;;15.37;39.52;94730.78;4952498;28;20090;-84
2022/01/14 03:22:35;;;;;;;9.55;6.10;;;;;;;15.38;39.40;94731.56;4952275;28;20704;-84
2022/01/14 03:27:47;;;;;;;12.98;7.70;;;;;;;15.42;39.33;94721.25;4950703;28;20170;-84
2022/01/14 03:30:13;;;;;;;7.95;5.35;;;;;;;15.42;39.46;94721.25;4951887;28;20039;-84
2022/01/14 03:32:40;;;;;;;6.55;5.18;;;;;;;15.43;39.26;94725.50;4953070;28;20499;-85
2022/01/14 03:35:06;;;;;;;6.30;4.85;;;;;;;15.42;39.36;94724.72;4937809;28;20261;-85
2022/01/14 03:37:32;;;;;;;7.35;4.97;;;;;;;15.41;39.72;94725.19;4937850;28;20534;-84
2022/01/14 03:39:57;;;;;;;7.45;4.97;;;;;;;15.34;39.56;94722.81;4938178;28;20037;-84
2022/01/14 03:42:22;;;;;;;6.10;4.60;;;;;;;15.35;39.46;94716.16;4937842;28;20027;-84
2022/01/14 03:44:48;;;;;;;10.48;7.05;;;;;;;15.34;39.58;94714.63;4921996;28;20375;-84
2022/01/14 03:47:13;;;;;;;8.77;6.18;;;;;;;15.36;39.74;94707.50;4952866;28;20501;-84
2022/01/14 03:49:39;;;;;;;7.75;6.15;;;;;;;15.36;39.61;94717.66;4937770;28;20498;-84
2022/01/14 03:52:04;;;;;;;9.40;6.20;;;;;;;15.34;39.48;94717.34;4937603;28;20049;-85
2022/01/14 03:54:30;;;;;;;7.75;5.13;;;;;;;15.39;39.42;94714.00;4954069;28;20046;-84
2022/01/14 03:56:55;;;;;;;8.30;5.85;;;;;;;15.33;39.56;94711.16;4937646;28;20042;-84
2022/01/14 03:59:21;;;;;;;6.70;5.30;;;;;;;15.40;39.72;94704.59;4937273;28;20070;-85
2022/01/14 04:01:46;;;;;;;5.95;4.72;;;;;;;15.33;39.35;94713.88;4985519;28;20057;-84
2022/01/14 04:04:11;;;;;;;6.38;4.65;;;;;;;15.40;39.41;94716.25;4937587;28;20035;-85
2022/01/14 04:06:37;;;;;;;7.80;5.47;;;;;;;15.37;39.33;94716.44;4921875;28;20331;-84
2022/01/14 04:09:02;;;;;;;7.18;4.82;;;;;;;15.36;39.41;94714.94;4921236;28;20383;-85
2022/01/14 04:11:29;;;;;;;7.72;5.15;;;;;;;15.39;39.30;94714.75;4953349;28;20047;-84
2022/01/14 04:13:56;;;;;;;6.28;4.97;;;;;;;15.43;39.66;94720.03;4918650;29;20034;-84
2022/01/14 04:16:23;;;;;;;9.10;6.95;;;;;;;15.32;39.55;94717.81;4902857;29;20422;-84
2022/01/14 04:18:49;;;;;;;12.00;7.68;;;;;;;15.30;39.64;94714.03;4934358;28;20031;-84
2022/01/14 04:21:14;;;;;;;7.47;5.75;;;;;;;15.33;39.40;94704.94;4917887;28;20062;-84
2022/01/14 04:23:40;;;;;;;7.57;4.28;;;;;;;15.33;39.68;94704.94;4934202;28;20499;-84
2022/01/14 04:26:06;;;;;;;6.25;4.28;;;;;;;15.31;39.51;94702.69;4933786;28;20137;-84
2022/01/14 04:28:35;;;;;;;8.60;5.97;;;;;;;15.29;39.59;94698.91;4934131;29;20526;-84
2022/01/14 04:31:02;;;;;;;7.00;4.97;;;;;;;15.28;39.55;94694.66;4918229;29;20035;-85
2022/01/14 04:33:28;;;;;;;8.13;5.88;;;;;;;15.28;39.81;94689.97;4919917;28;20442;-84
2022/01/14 04:35:54;;;;;;;7.38;4.88;;;;;;;15.30;39.40;94692.25;4937217;28;20082;-84
2022/01/14 04:38:23;;;;;;;6.20;4.72;;;;;;;15.32;39.43;94687.09;4935980;28;20035;-85
2022/01/14 04:40:48;;;;;;;9.82;6.35;;;;;;;15.32;39.34;94678.91;4922125;28;20482;-84
2022/01/14 04:43:16;;;;;;;9.55;5.78;;;;;;;15.32;39.45;94685.13;4969604;28;20034;-84
2022/01/14 04:45:54;;;;;;;10.10;7.03;;;;;;;15.31;39.57;94680.13;4938079;28;20043;-84
2022/01/14 04:48:20;;;;;;;7.20;5.07;;;;;;;15.31;39.64;94667.25;4940153;28;20039;-84
2022/01/14 04:50:45;;;;;;;7.25;5.05;;;;;;;15.31;39.39;94669.22;4920928;28;20046;-84
2022/01/14 04:53:11;;;;;;;5.93;4.38;;;;;;;15.32;39.81;94670.75;4920572;28;20051;-84
2022/01/14 04:55:36;;;;;;;11.55;7.63;;;;;;;15.33;39.72;94669.53;4921454;28;20038;-85
2022/01/14 04:58:02;;;;;;;7.63;4.65;;;;;;;15.33;39.44;94673.00;4920532;28;20117;-86
2022/01/14 05:00:28;;;;;;;9.57;5.95;;;;;;;15.33;39.55;94678.47;4969718;28;20045;-85
2022/01/14 05:02:55;;;;;;;7.50;5.15;;;;;;;15.31;39.38;94675.44;4960624;28;20034;-84
2022/01/14 05:05:22;;;;;;;7.32;5.55;;;;;;;15.32;40.00;94670.75;4920595;28;20045;-84
2022/01/14 05:07:49;;;;;;;6.93;5.68;;;;;;;15.30;39.67;94675.91;4937114;28;20549;-85
2022/01/14 05:12:46;;;;;;;8.77;4.82;;;;;;;15.33;39.59;94661.34;4953142;28;20043;-85
2022/01/14 05:15:12;;;;;;;6.35;4.10;;;;;;;15.33;39.51;94667.56;4935846;28;20054;-84
2022/01/14 05:17:37;;;;;;;8.48;5.95;;;;;;;15.37;39.21;94659.22;4937202;28;20038;-84
2022/01/14 05:20:04;;;;;;;6.95;4.40;;;;;;;15.33;39.53;94662.13;4920457;28;20039;-84
2022/01/14 05:22:29;;;;;;;7.22;4.90;;;;;;;15.38;39.61;94668.88;4952222;28;20098;-84
2022/01/14 05:24:54;;;;;;;6.90;4.95;;;;;;;15.41;39.32;94657.06;4920758;28;20034;-84
2022/01/14 05:27:20;;;;;;;10.27;7.00;;;;;;;15.36;39.42;94660.44;4920200;28;20046;-84
2022/01/14 05:29:45;;;;;;;4.82;3.53;;;;;;;15.36;39.49;94674.81;4952412;28;20054;-84
2022/01/14 05:32:13;;;;;;;7.28;5.40;;;;;;;15.36;39.53;94676.78;4919852;28;20457;-84
2022/01/14 05:34:39;;;;;;;6.38;5.00;;;;;;;15.46;39.28;94672.78;4936765;28;20064;-84
2022/01/14 05:37:05;;;;;;;9.52;6.43;;;;;;;15.36;39.54;94674.06;4935935;28;20034;-84
2022/01/14 05:39:31;;;;;;;8.02;4.85;;;;;;;15.33;39.67;94681.19;4920382;28;20296;-84
2022/01/14 05:41:57;;;;;;;8.13;4.93;;;;;;;15.41;39.66;94684.31;4969768;28;20201;-84
2022/01/14 05:44:26;;;;;;;7.82;5.07;;;;;;;15.38;39.71;94680.53;4919825;28;20125;-85
2022/01/14 05:46:52;;;;;;;12.15;8.98;;;;;;;15.33;39.49;94675.75;4937639;28;20437;-85
2022/01/14 05:49:17;;;;;;;6.75;3.88;;;;;;;15.33;39.61;94678.47;4936081;28;20126;-84
2022/01/14 05:51:43;;;;;;;5.40;4.28;;;;;;;15.37;39.42;94687.19;4940015;28;20145;-85
2022/01/14 05:54:09;;;;;;;4.95;4.05;;;;;;;15.36;39.48;94683.00;4939530;28;20038;-84
2022/01/14 05:56:34;;;;;;;6.13;3.88;;;;;;;15.39;39.25;94673.88;4940849;28;20035;-84
2022/01/14 05:58:59;;;;;;;7.72;5.38;;;;;;;15.39;39.46;94671.16;4955715;28;20524;-84
2022/01/14 06:01:25;;;;;;;17.23;5.13;;;;;;;15.36;39.44;94674.06;4955508;28;20039;-85
2022/01/14 06:03:50;;;;;;;10.93;5.10;;;;;;;15.38;39.49;94677.81;4972736;28;20038;-85
2022/01/14 06:06:15;;;;;;;5.50;3.90;;;;;;;15.37;39.33;94681.75;4972204;28;20047;-84
2022/01/14 06:08:41;;;;;;;9.02;5.50;;;;;;;15.35;39.30;94683.44;4971961;28;20113;-84
2022/01/14 06:11:06;;;;;;;15.05;9.82;;;;;;;15.42;39.77;94678.41;4953635;28;20042;-84
2022/01/14 06:13:32;;;;;;;16.73;10.45;;;;;;;15.48;39.19;94670.38;4967124;28;20041;-83
2022/01/14 06:15:57;;;;;;;5.85;3.22;;;;;;;15.41;39.49;94668.72;4952070;29;20517;-84
2022/01/14 06:18:23;;;;;;;4.20;3.28;;;;;;;15.35;39.30;94676.03;4920343;28;20495;-84
2022/01/14 06:20:48;;;;;;;4.30;2.90;;;;;;;15.33;39.85;94667.56;4936758;28;20039;-83
2022/01/14 06:23:13;;;;;;;16.60;10.43;;;;;;;15.44;39.73;94670.53;4920289;28;20443;-84
2022/01/14 06:25:39;;;;;;;5.75;3.28;;;;;;;15.41;39.44;94662.53;4905060;29;20474;-84
2022/01/14 06:28:04;;;;;;;5.40;3.58;;;;;;;15.45;39.36;94671.28;4934311;28;20518;-84
2022/01/14 06:30:30;;;;;;;5.97;4.50;;;;;;;15.45;39.38;94665.84;4936428;28;20486;-84
2022/01/14 06:32:56;;;;;;;9.40;6.45;;;;;;;15.42;39.30;94674.94;4920076;29;20538;-84
2022/01/14 06:35:22;;;;;;;4.90;3.25;;;;;;;15.40;39.58;94674.63;4923108;28;22897;-85
2022/01/14 06:37:47;;;;;;;6.20;3.88;;;;;;;15.37;39.59;94683.75;4939297;28;20085;-84
2022/01/14 06:40:13;;;;;;;7.65;5.93;;;;;;;15.37;39.44;94676.31;4954803;28;20089;-84
2022/01/14 06:42:38;;;;;;;3.65;2.72;;;;;;;15.42;39.36;94666.75;4955424;28;20042;-84
2022/01/14 06:45:04;;;;;;;5.90;3.22;;;;;;;15.39;39.30;94673.88;4938768;28;20096;-84
2022/01/14 06:47:30;;;;;;;4.55;3.35;;;;;;;15.46;39.52;94656.44;4955197;28;20038;-84
2022/01/14 06:49:55;;;;;;;5.53;3.38;;;;;;;15.40;39.38;94674.63;4955453;28;20441;-84
2022/01/14 06:52:21;;;;;;;4.10;2.58;;;;;;;15.36;39.76;94668.63;4954273;28;20049;-85
2022/01/14 06:54:47;;;;;;;6.85;4.93;;;;;;;15.36;39.69;94665.88;4939133;28;20039;-84
2022/01/14 06:57:13;;;;;;;5.40;3.92;;;;;;;15.35;39.49;94669.84;4939010;28;20023;-85
2022/01/14 06:59:38;;;;;;;6.55;3.53;;;;;;;15.32;39.55;94673.47;4944083;28;20062;-84
2022/01/14 07:02:03;;;;;;;6.22;4.07;;;;;;;15.34;39.58;94666.34;4967752;28;20135;-84
2022/01/14 07:04:29;;;;;;;3.30;2.45;;;;;;;15.37;39.73;94662.69;4922833;28;20413;-84
2022/01/14 07:06:54;;;;;;;4.43;3.38;;;;;;;15.35;39.60;94659.69;4954838;28;20031;-84
2022/01/14 07:09:20;;;;;;;5.10;3.15;;;;;;;15.35;39.62;94664.38;4938321;28;20372;-84
2022/01/14 07:11:52;;;;;;;7.15;4.43;;;;;;;15.38;39.68;94664.19;4922789;28;20039;-85
2022/01/14 07:14:17;;;;;;;2.95;2.22;;;;;;;15.32;39.69;94666.06;4919490;28;20066;-85
2022/01/14 07:16:43;;;;;;;5.47;3.65;;;;;;;15.38;39.33;94660.72;4919884;29;20487;-84
2022/01/14 07:19:08;;;;;;;6.97;5.18;;;;;;;15.42;39.51;94662.06;4934847;28;20533;-85
2022/01/14 07:21:34;;;;;;;4.90;3.75;;;;;;;15.44;39.49;94661.59;4903891;29;20043;-85
2022/01/14 07:24:02;;;;;;;3.35;2.50;;;;;;;15.43;39.11;94660.09;4919878;29;20130;-85
2022/01/14 07:26:27;;;;;;;2.95;2.10;;;;;;;15.42;39.50;94664.03;4919471;28;20143;-85
2022/01/14 07:28:52;;;;;;;3.17;2.45;;;;;;;15.37;39.40;94662.69;4909573;28;20063;-85
2022/01/14 07:31:18;;;;;;;9.60;6.38;;;;;;;15.41;39.46;94667.97;4937552;28;20039;-84
2022/01/14 07:33:43;;;;;;;4.22;3.03;;;;;;;15.42;39.30;94664.03;4937944;28;20038;-85
2022/01/14 07:36:09;;;;;;;4.18;2.72;;;;;;;15.42;39.40;94675.69;4937368;28;20035;-84
2022/01/14 07:38:34;;;;;;;7.60;5.35;;;;;;;15.42;39.44;94677.66;4938058;28;20394;-85
2022/01/14 07:40:59;;;;;;;3.15;2.40;;;;;;;15.42;39.26;94669.47;4938111;28;20042;-85
2022/01/14 07:43:25;;;;;;;9.07;5.78;;;;;;;15.48;39.34;94677.78;4937604;28;20035;-84
2022/01/14 07:45:50;;;;;;;4.72;3.47;;;;;;;15.44;39.52;94677.94;4954302;28;20395;-84
2022/01/14 07:48:16;;;;;;;3.65;2.85;;;;;;;15.51;39.13;94671.41;4922203;28;20043;-85
2022/01/14 07:50:41;;;;;;;4.07;2.65;;;;;;;15.42;39.40;94675.69;4937737;28;20042;-85
2022/01/14 07:53:06;;;;;;;6.20;3.15;;;;;;;15.46;39.27;94675.53;4921871;28;20042;-85
2022/01/14 07:55:32;;;;;;;2.90;1.98;;;;;;;15.44;39.45;94677.94;4937535;28;20050;-85
2022/01/14 07:57:57;;;;;;;3.63;2.40;;;;;;;15.45;39.61;94671.28;4954071;28;20027;-85
2022/01/14 08:00:22;;;;;;;5.60;3.88;;;;;;;15.45;39.65;94671.28;4933987;28;20046;-85
2022/01/14 08:02:48;;;;;;;4.28;2.10;;;;;;;15.47;39.42;94677.03;4913315;28;20027;-85
2022/01/14 08:05:15;;;;;;;3.33;2.55;;;;;;;15.51;39.33;94676.88;4937138;28;20039;-85
2022/01/14 08:07:45;;;;;;;5.22;3.15;;;;;;;15.48;39.44;94672.34;4938420;28;20113;-86
2022/01/14 08:10:12;;;;;;;4.47;3.10;;;;;;;15.49;39.43;94671.88;4953835;28;20035;-84
2022/01/14 08:12:37;;;;;;;3.55;2.53;;;;;;;15.47;39.49;94668.09;4921403;28;20051;-85
2022/01/14 08:15:04;;;;;;;2.45;1.67;;;;;;;15.54;39.29;94671.25;4952856;28;20038;-85
2022/01/14 08:17:31;;;;;;;49.17;4.95;;;;;;;15.66;39.51;94667.59;4922012;28;20035;-85
2022/01/14 08:19:56;;;;;;;3.05;1.92;;;;;;;15.73;41.55;94664.53;4938195;28;20043;-84
2022/01/14 08:22:21;;;;;;;5.47;2.20;;;;;;;15.64;40.28;94658.34;4970641;28;20057;-86
2022/01/14 08:24:47;;;;;;;2.58;1.77;;;;;;;15.63;39.29;94663.06;4921651;28;20043;-86
2022/01/14 08:27:12;;;;;;;3.83;2.25;;;;;;;15.67;38.97;94666.38;4912656;29;20035;-86
2022/01/14 08:29:38;;;;;;;4.47;1.80;;;;;;;15.70;38.85;94656.50;4914366;29;20050;-85
2022/01/14 08:32:03;;;;;;;5.05;1.90;;;;;;;15.71;38.88;94658.78;4913133;29;20147;-86
2022/01/14 08:34:29;;;;;;;3.22;2.05;;;;;;;15.70;38.90;94662.72;4913119;29;20478;-85
2022/01/14 08:36:55;;;;;;;2.97;2.47;;;;;;;15.67;39.10;94658.19;4913260;29;20036;-85
2022/01/14 08:39:20;;;;;;;6.03;2.05;;;;;;;15.74;38.82;94652.41;4913311;29;20051;-85
2022/01/14 08:41:46;;;;;;;3.38;2.28;;;;;;;15.70;39.04;94670.16;4913826;29;20122;-86
2022/01/14 08:44:13;;;;;;;3.97;2.17;;;;;;;15.67;38.81;94665.63;4913220;29;20050;-85
2022/01/14 08:46:39;;;;;;;3.85;1.92;;;;;;;15.76;38.58;94669.06;4898170;29;20094;-85
2022/01/14 08:49:04;;;;;;;3.78;2.20;;;;;;;15.71;39.09;94658.78;4912938;29;20035;-86
2022/01/14 08:51:30;;;;;;;2.30;1.70;;;;;;;15.72;38.97;94670.44;4913472;29;20040;-85
2022/01/14 08:53:56;;;;;;;3.28;2.60;;;;;;;15.72;39.21;94662.25;4897468;29;20048;-86
2022/01/14 08:56:22;;;;;;;3.38;2.33;;;;;;;15.73;38.84;94659.06;4896911;29;20044;-86
2022/01/14 08:58:47;;;;;;;2.65;2.15;;;;;;;15.76;38.78;94649.97;4915657;28;20375;-85
2022/01/14 09:01:13;;;;;;;3.78;2.10;;;;;;;15.76;38.88;94658.16;4951994;28;20031;-86
2022/01/14 09:03:38;;;;;;;3.13;2.08;;;;;;;15.80;38.88;94649.06;4954010;28;20034;-86
2022/01/14 09:06:04;;;;;;;2.50;1.75;;;;;;;15.76;38.73;94652.69;4936253;28;20076;-85
2022/01/14 09:08:29;;;;;;;17.95;2.88;;;;;;;15.85;38.62;94656.56;4952972;28;20493;-86
2022/01/14 09:10:55;;;;;;;24.73;3.80;;;;;;;15.91;38.80;94657.44;4934464;29;20086;-85
2022/01/14 09:13:20;;;;;;;4.40;1.60;;;;;;;15.81;38.66;94654.00;4902566;28;20110;-86
2022/01/14 09:15:46;;;;;;;6.50;2.08;;;;;;;15.85;38.98;94653.84;4953400;28;20406;-86
2022/01/14 09:18:12;;;;;;;5.60;3.35;;;;;;;15.82;38.92;94657.50;4936043;28;20149;-85
2022/01/14 09:20:37;;;;;;;64.82;40.33;;;;;;;15.85;39.25;94657.31;4921094;28;20065;-87
2022/01/14 09:23:04;;;;;;;56.10;36.28;;;;;;;16.00;39.56;94668.31;4936263;28;20050;-86
2022/01/14 09:25:32;;;;;;;8.68;5.10;;;;;;;15.98;38.94;94657.88;4936513;28;20071;-86
2022/01/14 09:27:57;;;;;;;16.60;5.32;;;;;;;15.96;39.06;94662.28;4921210;28;20035;-87
2022/01/14 09:30:23;;;;;;;171.95;105.47;;;;;;;16.03;39.39;94672.81;4935888;28;20046;-86
2022/01/14 09:32:48;;;;;;;23.52;16.98;;;;;;;15.99;39.17;94670.28;4933411;28;20056;-87
2022/01/14 09:35:14;;;;;;;38.40;14.85;;;;;;;15.95;39.00;94680.59;4949157;28;20074;-87
2022/01/14 09:37:42;;;;;;;24.25;7.45;;;;;;;15.86;38.77;94680.66;4933268;28;20062;-85
2022/01/14 09:40:08;;;;;;;11.25;7.53;;;;;;;15.85;39.02;94676.41;4933394;28;20107;-86
2022/01/14 09:42:34;;;;;;;15.85;8.07;;;;;;;15.90;39.24;94681.25;4933335;28;20499;-85
2022/01/14 09:44:59;;;;;;;17.25;8.85;;;;;;;15.94;39.27;94673.66;4933257;28;20445;-86
2022/01/14 09:47:25;;;;;;;13.80;7.55;;;;;;;15.87;39.15;94668.53;4948522;28;20043;-85
2022/01/14 09:49:50;;;;;;;16.02;7.95;;;;;;;15.96;39.03;94663.03;4933263;29;20039;-86
2022/01/14 09:52:16;;;;;;;11.40;7.07;;;;;;;15.93;39.34;94660.47;4948406;28;20249;-85
2022/01/14 09:54:42;;;;;;;13.73;6.65;;;;;;;15.92;39.19;94665.16;4933188;29;20038;-85
2022/01/14 09:57:09;;;;;;;14.65;7.05;;;;;;;15.95;39.03;94674.41;4917078;28;20050;-86
2022/01/14 09:59:35;;;;;;;11.63;6.25;;;;;;;15.92;39.10;94670.63;4933355;29;20069;-85
2022/01/14 10:02:00;;;;;;;17.27;6.28;;;;;;;15.88;39.13;94672.75;4948315;28;20118;-86
2022/01/14 10:04:26;;;;;;;8.73;5.22;;;;;;;15.88;39.23;94670.03;4911117;28;20130;-86
2022/01/14 10:06:53;;;;;;;12.65;5.45;;;;;;;15.85;39.14;94670.22;4930454;28;20040;-86
2022/01/14 10:09:24;;;;;;;15.10;6.65;;;;;;;15.92;39.04;94661.69;4916030;28;20082;-86
2022/01/14 10:12:15;;;;;;;12.27;6.00;;;;;;;15.87;39.09;94652.16;4944230;28;20051;-85
2022/01/14 10:14:52;;;;;;;13.80;5.20;;;;;;;15.83;39.25;94651.56;4929854;29;20716;-85
2022/01/14 10:17:17;;;;;;;13.70;6.72;;;;;;;15.84;39.12;94647.63;4932299;28;20126;-85
2022/01/14 10:19:44;;;;;;;14.77;7.60;;;;;;;15.95;39.37;94633.50;4947488;29;20046;-85
2022/01/14 10:22:21;;;;;;;11.32;6.53;;;;;;;15.90;38.92;94634.13;4915505;28;20098;-85
2022/01/14 10:25:06;;;;;;;8.20;4.57;;;;;;;15.85;39.00;94635.50;4933457;29;20217;-85
2022/01/14 10:27:39;;;;;;;8.85;5.38;;;;;;;15.80;39.20;94621.78;4948832;28;20076;-86
2022/01/14 10:30:17;;;;;;;9.48;5.00;;;;;;;15.81;38.88;94628.72;4933383;28;20043;-86
2022/01/14 10:32:44;;;;;;;13.55;7.57;;;;;;;15.81;38.97;94621.28;4935692;28;20130;-86
2022/01/14 10:35:11;;;;;;;10.65;6.18;;;;;;;15.87;39.18;94624.16;4919555;28;20070;-86
2022/01/14 10:37:37;;;;;;;11.55;5.93;;;;;;;15.85;39.19;94627.34;4953794;28;20130;-86
2022/01/14 10:40:04;;;;;;;13.35;6.75;;;;;;;15.90;39.49;94617.75;4916395;28;20039;-86
2022/01/14 10:42:33;;;;;;;16.80;9.50;;;;;;;15.96;39.49;94622.13;4921275;28;20447;-86
2022/01/14 10:45:21;;;;;;;9.93;4.45;;;;;;;15.81;39.27;94618.56;4952801;28;20047;-86
2022/01/14 10:48:00;;;;;;;8.52;5.00;;;;;;;15.86;39.07;94617.94;4939209;28;20583;-86
2022/01/14 10:50:31;;;;;;;12.73;7.25;;;;;;;15.90;39.19;94615.78;4953889;28;20039;-85
2022/01/14 10:52:57;;;;;;;;;;;;;;;15.86;39.04;94615.22;4946447;28;20047;-85
2022/01/14 10:55:29;;;;;;;34.60;9.02;;;;;;;15.88;39.37;94620.94;4972402;28;19969;-85
2022/01/14 10:57:54;;;;;;;16.75;6.35;;;;;;;15.86;39.07;94600.81;4955524;28;20273;-85
2022/01/14 11:00:20;;;;;;;44.53;11.63;;;;;;;15.87;39.13;94602.34;4938783;28;20035;-85
2022/01/14 11:02:48;;;;;;;43.92;8.73;;;;;;;15.87;39.27;94603.09;4900753;29;20406;-86
2022/01/14 11:05:19;;;;;;;26.83;6.95;;;;;;;15.87;39.14;94588.69;4930773;29;20499;-85
2022/01/14 11:07:45;;;;;;;21.60;6.85;;;;;;;15.82;39.38;94598.28;4914885;29;20168;-85
2022/01/14 11:10:25;;;;;;;36.15;8.30;;;;;;;15.81;39.29;94604.94;4901907;29;20071;-85
2022/01/14 11:12:51;;;;;;;38.30;7.40;;;;;;;15.82;39.35;94602.97;4895525;29;20044;-85
2022/01/14 11:15:17;;;;;;;26.08;8.95;;;;;;;15.90;39.26;94601.41;4912272;28;20079;-85
2022/01/14 11:17:43;;;;;;;27.48;7.97;;;;;;;15.93;39.24;94603.22;4898791;29;20412;-86
2022/01/14 11:20:09;;;;;;;22.58;6.63;;;;;;;15.90;39.08;94591.25;4899942;28;20098;-85
2022/01/14 11:25:19;;;;;;;23.38;6.55;;;;;;;15.89;39.03;94581.56;4922261;29;20074;-85
2022/01/14 11:27:57;;;;;;;23.23;7.15;;;;;;;15.83;39.24;94577.97;4933614;29;20063;-86
2022/01/14 11:30:34;;;;;;;19.35;6.82;;;;;;;15.85;39.36;94580.97;4917594;29;20043;-85
2022/01/14 11:33:03;;;;;;;15.73;6.55;;;;;;;15.83;39.27;94577.22;4921273;28;20478;-86
2022/01/14 11:35:28;;;;;;;24.00;8.90;;;;;;;15.86;39.46;94568.84;4924437;28;20046;-86
2022/01/14 11:37:54;;;;;;;22.55;7.15;;;;;;;15.84;39.30;94570.53;4953685;28;20030;-86
2022/01/14 11:40:19;;;;;;;22.85;7.18;;;;;;;15.82;39.39;94570.25;4937449;28;20038;-85
2022/01/14 11:42:49;;;;;;;21.02;6.80;;;;;;;15.80;39.07;94562.56;4922035;28;20035;-85
2022/01/14 11:45:16;;;;;;;19.65;7.30;;;;;;;15.84;39.37;94559.63;4937573;28;20031;-86
2022/01/14 11:47:44;;;;;;;16.40;6.57;;;;;;;15.83;39.43;94560.84;4937548;28;20518;-85
2022/01/14 11:50:19;;;;;;;19.08;8.25;;;;;;;15.81;39.27;94552.38;4970974;28;20038;-85
2022/01/14 11:52:44;;;;;;;18.08;6.95;;;;;;;15.79;39.38;94563.03;4953963;28;20538;-85